createdAt,value
2019-03-09T00:01:23.936Z,10.33
2019-03-09T00:03:53.349Z,8.23
2019-03-09T00:06:22.705Z,8.20
2019-03-09T00:08:52.131Z,7.97
2019-03-09T00:11:21.589Z,10.33
2019-03-09T00:13:52.890Z,9.53
2019-03-09T00:16:21.969Z,11.00
2019-03-09T00:18:51.797Z,9.60
2019-03-09T00:21:21.271Z,12.73
2019-03-09T00:24:08.279Z,10.10
2019-03-09T00:26:57.417Z,10.20
2019-03-09T00:29:48.951Z,12.23
2019-03-09T00:32:20.430Z,12.17
2019-03-09T00:34:50.046Z,12.10
2019-03-09T00:37:19.512Z,12.20
2019-03-09T00:39:48.960Z,10.53
2019-03-09T00:42:18.316Z,11.60
2019-03-09T00:44:47.662Z,10.33
2019-03-09T00:47:17.113Z,10.20
2019-03-09T00:49:46.424Z,8.60
2019-03-09T00:52:15.734Z,10.70
2019-03-09T00:54:45.025Z,9.73
2019-03-09T00:57:14.546Z,8.80
2019-03-09T00:59:43.890Z,10.57
2019-03-09T01:02:13.314Z,10.70
2019-03-09T01:04:42.718Z,9.17
2019-03-09T01:07:11.951Z,7.10
2019-03-09T01:09:41.249Z,8.13
2019-03-09T01:12:10.605Z,8.43
2019-03-09T01:14:39.923Z,9.83
2019-03-09T01:17:09.329Z,8.00
2019-03-09T01:19:38.776Z,8.77
2019-03-09T01:22:08.128Z,7.23
2019-03-09T01:24:37.444Z,6.67
2019-03-09T01:27:06.819Z,8.63
2019-03-09T01:29:36.279Z,8.40
2019-03-09T01:32:24.770Z,7.50
2019-03-09T01:34:54.207Z,7.53
2019-03-09T01:37:26.246Z,8.27
2019-03-09T01:39:55.637Z,7.37
2019-03-09T01:42:24.956Z,8.23
2019-03-09T01:44:54.334Z,8.53
2019-03-09T01:47:23.679Z,6.00
2019-03-09T01:49:53.096Z,8.20
2019-03-09T01:52:22.589Z,8.23
2019-03-09T01:54:51.971Z,7.93
2019-03-09T01:57:21.542Z,8.90
2019-03-09T01:59:50.927Z,9.13
2019-03-09T02:02:20.246Z,7.73
2019-03-09T02:04:49.558Z,7.07
2019-03-09T02:07:18.874Z,7.13
2019-03-09T02:09:48.199Z,7.80
2019-03-09T02:12:17.611Z,6.07
2019-03-09T02:14:47.034Z,4.97
2019-03-09T02:17:16.468Z,6.33
2019-03-09T02:19:45.876Z,5.93
2019-03-09T02:22:15.244Z,5.23
2019-03-09T02:24:44.649Z,5.33
2019-03-09T02:27:14.075Z,5.57
2019-03-09T02:29:43.454Z,6.47
2019-03-09T02:32:12.824Z,4.07
2019-03-09T02:34:42.119Z,2.83
2019-03-09T02:37:11.512Z,3.87
2019-03-09T02:39:46.467Z,4.40
2019-03-09T02:42:15.868Z,5.60
2019-03-09T02:44:45.308Z,3.50
2019-03-09T02:47:14.647Z,6.03
2019-03-09T02:49:44.031Z,5.83
2019-03-09T02:52:13.359Z,4.70
2019-03-09T02:54:42.766Z,5.63
2019-03-09T02:57:12.045Z,4.37
2019-03-09T02:59:41.395Z,3.97
2019-03-09T03:02:18.335Z,4.10
2019-03-09T03:04:47.640Z,5.67
2019-03-09T03:07:17.004Z,4.73
2019-03-09T03:09:46.344Z,4.97
2019-03-09T03:12:15.710Z,5.93
2019-03-09T03:14:45.128Z,4.30
2019-03-09T03:17:18.453Z,5.67
2019-03-09T03:19:47.839Z,6.37
2019-03-09T03:22:17.244Z,5.03
2019-03-09T03:24:46.516Z,4.57
2019-03-09T03:27:15.815Z,4.67
2019-03-09T03:29:45.214Z,4.23
2019-03-09T03:32:14.619Z,3.07
2019-03-09T03:34:44.023Z,5.27
2019-03-09T03:37:13.369Z,3.83
2019-03-09T03:39:42.735Z,4.73
2019-03-09T03:42:12.248Z,5.70
2019-03-09T03:44:44.653Z,6.70
2019-03-09T03:47:15.748Z,4.10
2019-03-09T03:49:45.153Z,4.83
2019-03-09T03:52:14.465Z,4.37
2019-03-09T03:54:43.777Z,4.20
2019-03-09T03:57:13.054Z,6.67
2019-03-09T03:59:42.350Z,7.07
2019-03-09T04:02:11.731Z,6.60
2019-03-09T04:04:41.319Z,5.90
2019-03-09T04:07:10.645Z,7.23
2019-03-09T04:09:40.420Z,7.57
2019-03-09T04:12:09.830Z,6.57
2019-03-09T04:14:39.221Z,6.63
2019-03-09T04:17:08.561Z,6.87
2019-03-09T04:19:37.917Z,7.17
2019-03-09T04:22:07.258Z,7.17
2019-03-09T04:24:38.779Z,7.20
2019-03-09T04:27:09.547Z,7.87
2019-03-09T04:29:38.833Z,6.47
2019-03-09T04:32:08.137Z,7.37
2019-03-09T04:34:37.462Z,7.60
2019-03-09T04:37:06.874Z,8.13
2019-03-09T04:39:36.191Z,6.87
2019-03-09T04:42:05.515Z,8.17
2019-03-09T04:44:34.804Z,6.53
2019-03-09T04:47:04.191Z,6.57
2019-03-09T04:49:33.602Z,8.03
2019-03-09T04:52:02.977Z,9.03
2019-03-09T04:54:32.337Z,7.00
2019-03-09T04:57:01.710Z,6.57
2019-03-09T04:59:31.029Z,6.70
2019-03-09T05:02:00.317Z,7.93
2019-03-09T05:04:52.334Z,5.50
2019-03-09T05:07:36.727Z,6.57
2019-03-09T05:10:15.527Z,6.83
2019-03-09T05:12:45.313Z,9.40
2019-03-09T05:15:14.626Z,7.53
2019-03-09T05:17:43.951Z,6.20
2019-03-09T05:20:13.265Z,7.57
2019-03-09T05:22:42.561Z,8.53
2019-03-09T05:25:11.929Z,8.00
2019-03-09T05:27:41.282Z,7.73
2019-03-09T05:30:12.587Z,5.60
2019-03-09T05:32:41.902Z,7.23
2019-03-09T05:35:11.306Z,5.33
2019-03-09T05:37:43.363Z,8.07
2019-03-09T05:40:11.746Z,7.13
2019-03-09T05:42:41.075Z,6.77
2019-03-09T05:45:10.444Z,6.93
2019-03-09T05:47:39.888Z,9.03
2019-03-09T05:50:09.247Z,4.80
2019-03-09T05:52:39.019Z,7.30
2019-03-09T05:55:26.713Z,7.67
2019-03-09T05:57:56.055Z,8.13
2019-03-09T06:00:25.333Z,8.90
2019-03-09T06:02:54.730Z,7.60
2019-03-09T06:05:38.162Z,8.23
2019-03-09T06:08:08.408Z,7.13
2019-03-09T06:10:37.799Z,7.87
2019-03-09T06:13:07.095Z,6.87
2019-03-09T06:15:36.360Z,6.20
2019-03-09T06:18:06.476Z,4.77
2019-03-09T06:20:35.958Z,6.33
2019-03-09T06:23:05.299Z,5.43
2019-03-09T06:25:34.681Z,5.30
2019-03-09T06:28:04.996Z,5.30
2019-03-09T06:30:34.493Z,5.50
2019-03-09T06:33:35.170Z,4.77
2019-03-09T06:36:33.527Z,5.27
2019-03-09T06:39:23.632Z,6.03
2019-03-09T06:42:43.205Z,7.13
2019-03-09T06:45:14.710Z,6.00
2019-03-09T06:47:44.113Z,6.83
2019-03-09T06:50:18.608Z,6.07
2019-03-09T06:52:48.048Z,6.70
2019-03-09T06:55:18.857Z,8.27
2019-03-09T06:57:48.225Z,6.63
2019-03-09T07:00:35.101Z,7.43
2019-03-09T07:03:04.833Z,6.67
2019-03-09T07:05:34.190Z,6.73
2019-03-09T07:08:03.605Z,8.77
2019-03-09T07:10:33.003Z,6.73
2019-03-09T07:13:02.306Z,4.93
2019-03-09T07:15:33.935Z,6.83
2019-03-09T07:18:05.811Z,6.57
2019-03-09T07:20:35.117Z,7.43
2019-03-09T07:23:06.725Z,5.50
2019-03-09T07:25:36.125Z,6.50
2019-03-09T07:28:07.501Z,5.37
2019-03-09T07:30:36.951Z,5.00
2019-03-09T07:33:06.373Z,5.03
2019-03-09T07:35:35.801Z,5.57
2019-03-09T07:38:05.241Z,4.53
2019-03-09T07:40:34.716Z,4.80
2019-03-09T07:43:04.426Z,4.27
2019-03-09T07:45:33.883Z,4.10
2019-03-09T07:48:03.408Z,4.00
2019-03-09T07:50:32.887Z,4.33
2019-03-09T07:53:02.159Z,4.30
2019-03-09T07:55:31.590Z,4.13
2019-03-09T07:58:05.287Z,5.37
2019-03-09T08:00:34.768Z,4.60
2019-03-09T08:03:04.374Z,4.90
2019-03-09T08:05:33.826Z,4.07
2019-03-09T08:08:03.144Z,4.70
2019-03-09T08:10:32.619Z,5.10
2019-03-09T08:13:02.010Z,4.40
2019-03-09T08:15:31.415Z,4.17
2019-03-09T08:18:00.814Z,3.33
2019-03-09T08:20:30.228Z,3.83
2019-03-09T08:22:59.731Z,4.37
2019-03-09T08:25:29.207Z,3.73
2019-03-09T08:27:58.799Z,3.20
2019-03-09T08:30:28.267Z,3.67
2019-03-09T08:32:57.705Z,3.73
2019-03-09T08:35:27.150Z,3.80
2019-03-09T08:37:56.673Z,4.10
2019-03-09T08:40:26.094Z,3.90
2019-03-09T08:42:55.449Z,3.40
2019-03-09T08:45:24.918Z,3.13
2019-03-09T08:47:54.301Z,3.07
2019-03-09T08:50:23.694Z,3.50
2019-03-09T08:52:53.060Z,3.57
2019-03-09T08:55:22.414Z,4.83
2019-03-09T08:57:51.827Z,3.53
2019-03-09T09:00:30.427Z,3.37
2019-03-09T09:03:00.123Z,3.20
2019-03-09T09:05:29.539Z,3.47
2019-03-09T09:07:58.926Z,3.53
2019-03-09T09:10:28.369Z,3.83
2019-03-09T09:12:57.660Z,3.60
2019-03-09T09:15:27.142Z,3.50
2019-03-09T09:17:59.069Z,3.33
2019-03-09T09:20:29.822Z,3.83
2019-03-09T09:22:59.306Z,3.30
2019-03-09T09:25:28.672Z,2.90
2019-03-09T09:27:58.114Z,3.93
2019-03-09T09:30:27.938Z,3.40
2019-03-09T09:32:57.371Z,3.63
2019-03-09T09:35:26.853Z,3.07
2019-03-09T09:37:56.394Z,3.20
2019-03-09T09:40:26.033Z,3.37
2019-03-09T09:42:55.666Z,3.60
2019-03-09T09:45:25.149Z,3.60
2019-03-09T09:47:54.548Z,3.57
2019-03-09T09:50:23.756Z,3.97
2019-03-09T09:52:55.373Z,3.63
2019-03-09T09:55:24.758Z,4.40
2019-03-09T09:57:54.091Z,3.97
2019-03-09T10:00:25.100Z,4.17
2019-03-09T10:02:54.490Z,3.80
2019-03-09T10:05:23.945Z,3.10
2019-03-09T10:07:53.301Z,3.10
2019-03-09T10:10:22.628Z,3.17
2019-03-09T10:12:52.087Z,3.87
2019-03-09T10:15:23.624Z,4.00
2019-03-09T10:17:53.270Z,3.17
2019-03-09T10:20:22.814Z,3.33
2019-03-09T10:23:02.993Z,3.13
2019-03-09T10:25:23.418Z,2.70
2019-03-09T10:27:52.969Z,3.83
2019-03-09T10:30:22.710Z,2.83
2019-03-09T10:32:52.182Z,3.33
2019-03-09T10:35:21.830Z,2.90
2019-03-09T10:37:51.355Z,2.63
2019-03-09T10:40:20.812Z,3.80
2019-03-09T10:42:50.241Z,2.70
2019-03-09T10:45:19.647Z,3.10
2019-03-09T10:47:49.215Z,2.87
2019-03-09T10:50:18.519Z,3.03
2019-03-09T10:52:47.821Z,2.43
2019-03-09T10:55:19.189Z,2.90
2019-03-09T10:57:50.381Z,2.73
2019-03-09T11:00:30.585Z,2.93
2019-03-09T11:03:00.032Z,2.80
2019-03-09T11:05:29.499Z,3.20
2019-03-09T11:07:59.044Z,2.90
2019-03-09T11:10:28.636Z,2.90
2019-03-09T11:12:58.047Z,3.10
2019-03-09T11:15:27.506Z,2.90
2019-03-09T11:17:56.875Z,3.00
2019-03-09T11:20:26.269Z,2.70
2019-03-09T11:22:55.693Z,2.50
2019-03-09T11:25:25.054Z,3.63
2019-03-09T11:27:54.549Z,3.17
2019-03-09T11:30:25.295Z,3.37
2019-03-09T11:32:54.807Z,3.07
2019-03-09T11:35:24.209Z,2.73
2019-03-09T11:37:54.213Z,2.93
2019-03-09T11:40:23.783Z,3.07
2019-03-09T11:42:53.174Z,2.70
2019-03-09T11:45:22.661Z,3.00
2019-03-09T11:47:52.084Z,3.00
2019-03-09T11:50:21.495Z,2.90
2019-03-09T11:52:50.879Z,3.03
2019-03-09T11:55:20.547Z,3.00
2019-03-09T11:57:50.211Z,2.57
2019-03-09T12:00:24.064Z,3.03
2019-03-09T12:02:53.465Z,3.33
2019-03-09T12:05:22.995Z,3.40
2019-03-09T12:07:52.448Z,3.90
2019-03-09T12:10:21.904Z,2.93
2019-03-09T12:12:51.323Z,3.13
2019-03-09T12:15:20.746Z,3.63
2019-03-09T12:17:50.793Z,3.93
2019-03-09T12:20:21.692Z,3.10
2019-03-09T12:22:51.020Z,2.77
2019-03-09T12:25:20.772Z,2.97
2019-03-09T12:27:50.241Z,3.07
2019-03-09T12:30:20.006Z,3.07
2019-03-09T12:32:49.693Z,3.10
2019-03-09T12:35:19.189Z,3.50
2019-03-09T12:37:50.005Z,2.67
2019-03-09T12:40:19.420Z,3.00
2019-03-09T12:42:48.796Z,2.80
2019-03-09T12:45:18.223Z,3.87
2019-03-09T12:47:47.669Z,3.13
2019-03-09T12:50:17.786Z,3.40
2019-03-09T12:52:47.301Z,3.33
2019-03-09T12:55:16.577Z,3.67
2019-03-09T12:57:45.902Z,3.67
2019-03-09T13:00:17.163Z,3.17
2019-03-09T13:02:46.643Z,3.33
2019-03-09T13:05:16.917Z,2.80
2019-03-09T13:07:46.297Z,3.43
2019-03-09T13:10:16.378Z,3.70
2019-03-09T13:12:45.896Z,3.10
2019-03-09T13:15:16.380Z,3.00
2019-03-09T13:17:45.945Z,3.30
2019-03-09T13:20:15.442Z,2.93
2019-03-09T13:22:45.002Z,3.20
2019-03-09T13:25:14.556Z,3.13
2019-03-09T13:27:44.065Z,3.50
2019-03-09T13:30:15.822Z,3.13
2019-03-09T13:32:45.585Z,2.47
2019-03-09T13:35:16.098Z,3.63
2019-03-09T13:37:46.070Z,3.13
2019-03-09T13:40:15.916Z,3.30
2019-03-09T13:42:45.199Z,3.17
2019-03-09T13:45:16.601Z,3.03
2019-03-09T13:47:45.984Z,2.93
2019-03-09T13:50:15.731Z,2.90
2019-03-09T13:52:45.142Z,3.17
2019-03-09T13:55:14.601Z,2.33
2019-03-09T13:57:43.930Z,3.03
2019-03-09T14:00:14.515Z,2.93
2019-03-09T14:02:43.894Z,2.57
2019-03-09T14:05:13.322Z,2.97
2019-03-09T14:07:42.681Z,3.03
2019-03-09T14:10:12.623Z,3.37
2019-03-09T14:12:42.058Z,3.13
2019-03-09T14:15:13.192Z,3.50
2019-03-09T14:17:42.608Z,3.30
2019-03-09T14:20:12.395Z,3.17
2019-03-09T14:22:41.876Z,2.60
2019-03-09T14:25:11.485Z,3.23
2019-03-09T14:27:40.917Z,3.50
2019-03-09T14:30:12.340Z,3.80
2019-03-09T14:32:41.855Z,3.60
2019-03-09T14:35:11.189Z,3.53
2019-03-09T14:37:40.657Z,2.93
2019-03-09T14:40:10.810Z,3.17
2019-03-09T14:42:40.162Z,3.17
2019-03-09T14:45:12.985Z,3.13
2019-03-09T14:47:42.360Z,2.90
2019-03-09T14:50:11.996Z,2.30
2019-03-09T14:52:41.306Z,3.10
2019-03-09T14:55:10.629Z,3.60
2019-03-09T14:57:39.936Z,3.67
2019-03-09T15:00:12.671Z,2.73
2019-03-09T15:02:42.082Z,3.60
2019-03-09T15:05:11.415Z,2.97
2019-03-09T15:07:40.781Z,3.43
2019-03-09T15:10:11.931Z,3.20
2019-03-09T15:12:41.316Z,3.13
2019-03-09T15:15:11.348Z,3.33
2019-03-09T15:17:40.860Z,3.57
2019-03-09T15:20:10.563Z,2.90
2019-03-09T15:22:39.959Z,2.60
2019-03-09T15:25:10.075Z,2.90
2019-03-09T15:27:39.442Z,3.30
2019-03-09T15:30:12.182Z,2.90
2019-03-09T15:32:41.628Z,3.60
2019-03-09T15:35:12.627Z,3.80
2019-03-09T15:37:41.922Z,3.50
2019-03-09T15:40:11.418Z,3.10
2019-03-09T15:42:40.729Z,2.83
2019-03-09T15:45:11.055Z,3.37
2019-03-09T15:47:40.489Z,3.70
2019-03-09T15:50:11.041Z,2.93
2019-03-09T15:52:40.436Z,3.37
2019-03-09T15:55:11.824Z,4.30
2019-03-09T15:57:41.259Z,4.80
2019-03-09T16:00:14.046Z,4.17
2019-03-09T16:02:43.443Z,5.47
2019-03-09T16:05:12.790Z,5.63
2019-03-09T16:07:42.214Z,5.90
2019-03-09T16:10:12.843Z,6.20
2019-03-09T16:12:42.278Z,7.90
2019-03-09T16:15:12.706Z,6.23
2019-03-09T16:17:42.247Z,5.10
2019-03-09T16:20:13.489Z,4.90
2019-03-09T16:22:42.967Z,4.80
2019-03-09T16:25:12.320Z,4.83
2019-03-09T16:27:41.730Z,4.37
2019-03-09T16:30:13.616Z,3.70
2019-03-09T16:32:43.013Z,3.73
2019-03-09T16:35:12.309Z,4.60
2019-03-09T16:37:41.593Z,4.20
2019-03-09T16:40:12.532Z,4.00
2019-03-09T16:42:41.834Z,3.97
2019-03-09T16:45:11.323Z,4.43
2019-03-09T16:47:40.729Z,4.80
2019-03-09T16:50:10.755Z,5.63
2019-03-09T16:52:40.154Z,6.07
2019-03-09T16:55:10.067Z,6.50
2019-03-09T16:57:39.392Z,6.80
2019-03-09T17:00:12.201Z,6.23
2019-03-09T17:02:41.615Z,7.30
2019-03-09T17:05:10.951Z,8.33
2019-03-09T17:07:40.292Z,7.50
2019-03-09T17:10:09.632Z,8.33
2019-03-09T17:12:39.046Z,7.50
2019-03-09T17:15:09.434Z,9.03
2019-03-09T17:17:38.830Z,8.67
2019-03-09T17:20:10.402Z,4.83
2019-03-09T17:22:39.779Z,10.73
2019-03-09T17:25:10.590Z,6.83
2019-03-09T17:27:39.871Z,7.43
2019-03-09T17:30:11.399Z,7.20
2019-03-09T17:32:40.706Z,8.23
2019-03-09T17:35:10.099Z,8.47
2019-03-09T17:37:39.472Z,8.50
2019-03-09T17:40:09.605Z,10.40
2019-03-09T17:42:38.986Z,8.17
2019-03-09T17:45:14.370Z,8.40
2019-03-09T17:47:43.644Z,9.83
2019-03-09T17:50:13.329Z,9.70
2019-03-09T17:52:43.806Z,8.73
2019-03-09T17:55:13.330Z,10.87
2019-03-09T17:57:42.749Z,10.33
2019-03-09T18:00:16.725Z,9.97
2019-03-09T18:02:46.093Z,10.40
2019-03-09T18:05:15.496Z,9.83
2019-03-09T18:07:44.895Z,10.47
2019-03-09T18:10:17.752Z,8.87
2019-03-09T18:12:47.202Z,9.60
2019-03-09T18:15:16.471Z,8.43
2019-03-09T18:17:45.826Z,7.93
2019-03-09T18:20:15.145Z,8.37
2019-03-09T18:22:44.552Z,8.37
2019-03-09T18:25:13.846Z,15.83
2019-03-09T18:27:43.176Z,8.33
2019-03-09T18:30:12.906Z,6.80
2019-03-09T18:32:42.262Z,6.87
2019-03-09T18:35:11.809Z,8.00
2019-03-09T18:37:41.159Z,6.43
2019-03-09T18:40:10.681Z,6.90
2019-03-09T18:42:39.960Z,5.80
2019-03-09T18:45:11.620Z,4.37
2019-03-09T18:47:41.013Z,4.80
2019-03-09T18:50:10.530Z,4.77
2019-03-09T18:52:39.925Z,3.73
2019-03-09T18:55:09.496Z,4.03
2019-03-09T18:57:38.887Z,2.87
2019-03-09T19:00:09.830Z,3.33
2019-03-09T19:02:39.131Z,3.13
2019-03-09T19:05:08.458Z,2.03
2019-03-09T19:07:37.829Z,2.53
2019-03-09T19:10:08.286Z,2.40
2019-03-09T19:12:37.604Z,2.13
2019-03-09T19:15:08.297Z,2.00
2019-03-09T19:17:37.601Z,1.57
2019-03-09T19:20:07.910Z,1.60
2019-03-09T19:22:37.313Z,2.93
2019-03-09T19:25:07.596Z,2.37
2019-03-09T19:27:36.999Z,2.53
2019-03-09T19:30:07.485Z,2.20
2019-03-09T19:32:36.951Z,2.93
2019-03-09T19:35:06.752Z,2.47
2019-03-09T19:37:36.114Z,2.83
2019-03-09T19:40:06.229Z,2.80
2019-03-09T19:42:35.630Z,2.87
2019-03-09T19:45:05.497Z,3.07
2019-03-09T19:47:34.806Z,2.53
2019-03-09T19:50:04.431Z,2.97
2019-03-09T19:52:33.755Z,2.20
2019-03-09T19:55:05.278Z,2.50
2019-03-09T19:57:34.702Z,2.47
2019-03-09T20:00:04.191Z,2.27
2019-03-09T20:02:33.596Z,2.73
2019-03-09T20:05:02.898Z,2.30
2019-03-09T20:07:32.304Z,2.27
2019-03-09T20:10:01.698Z,2.47
2019-03-09T20:12:31.163Z,2.40
2019-03-09T20:15:00.502Z,2.60
2019-03-09T20:17:29.800Z,1.50
2019-03-09T20:19:59.161Z,2.10
2019-03-09T20:22:28.505Z,2.27
2019-03-09T20:24:57.872Z,2.77
2019-03-09T20:27:27.333Z,2.13
2019-03-09T20:29:56.727Z,2.63
2019-03-09T20:32:26.053Z,2.13
2019-03-09T20:34:55.392Z,2.40
2019-03-09T20:37:24.663Z,2.10
2019-03-09T20:39:54.062Z,3.37
2019-03-09T20:42:23.445Z,2.27
2019-03-09T20:44:52.898Z,2.20
2019-03-09T20:47:22.288Z,2.37
2019-03-09T20:49:51.605Z,2.40
2019-03-09T20:52:20.925Z,1.93
2019-03-09T20:54:50.212Z,1.83
2019-03-09T20:57:19.562Z,2.47
2019-03-09T20:59:48.883Z,2.30
2019-03-09T21:02:18.204Z,2.10
2019-03-09T21:04:47.589Z,1.80
2019-03-09T21:07:17.024Z,2.20
2019-03-09T21:09:48.027Z,2.30
2019-03-09T21:12:17.376Z,2.60
2019-03-09T21:14:46.704Z,2.27
2019-03-09T21:17:16.126Z,2.13
2019-03-09T21:19:45.501Z,2.43
2019-03-09T21:22:14.858Z,3.07
2019-03-09T21:24:44.225Z,2.60
2019-03-09T21:27:13.808Z,3.57
2019-03-09T21:29:43.120Z,2.90
2019-03-09T21:32:12.577Z,2.90
2019-03-09T21:34:41.913Z,3.40
2019-03-09T21:37:11.171Z,3.40
2019-03-09T21:39:40.539Z,2.87
2019-03-09T21:42:09.855Z,2.90
2019-03-09T21:44:39.216Z,2.20
2019-03-09T21:47:08.577Z,3.20
2019-03-09T21:49:37.879Z,2.30
2019-03-09T21:52:07.176Z,3.13
2019-03-09T21:54:36.487Z,2.40
2019-03-09T21:57:05.823Z,2.77
2019-03-09T21:59:35.223Z,2.70
2019-03-09T22:02:04.635Z,2.50
2019-03-09T22:04:33.993Z,2.97
2019-03-09T22:07:03.280Z,2.63
2019-03-09T22:09:32.595Z,3.20
2019-03-09T22:12:01.874Z,2.40
2019-03-09T22:14:31.282Z,2.83
2019-03-09T22:17:00.559Z,2.43
2019-03-09T22:19:29.935Z,3.43
2019-03-09T22:21:59.342Z,2.43
2019-03-09T22:24:29.136Z,2.70
2019-03-09T22:26:58.480Z,2.40
2019-03-09T22:29:27.959Z,2.97
2019-03-09T22:31:57.304Z,2.63
2019-03-09T22:34:26.813Z,2.70
2019-03-09T22:36:56.247Z,2.73
2019-03-09T22:39:27.087Z,3.23
2019-03-09T22:41:56.491Z,2.77
2019-03-09T22:44:25.905Z,3.00
2019-03-09T22:46:55.202Z,2.17
2019-03-09T22:49:24.580Z,3.10
2019-03-09T22:51:56.030Z,2.47
2019-03-09T22:54:25.317Z,2.60
2019-03-09T22:56:54.638Z,2.43
2019-03-09T22:59:26.445Z,2.03
2019-03-09T23:01:55.764Z,3.00
2019-03-09T23:04:25.142Z,2.20
2019-03-09T23:06:54.562Z,2.37
2019-03-09T23:09:23.886Z,2.37
2019-03-09T23:11:53.188Z,2.40
2019-03-09T23:14:22.575Z,1.87
2019-03-09T23:16:51.873Z,2.60
2019-03-09T23:19:21.162Z,2.10
2019-03-09T23:21:50.481Z,2.90
2019-03-09T23:24:19.823Z,2.60
2019-03-09T23:26:49.226Z,2.43
2019-03-09T23:29:18.551Z,2.60
2019-03-09T23:31:47.890Z,2.30
2019-03-09T23:34:17.260Z,2.20
2019-03-09T23:36:46.645Z,2.50
2019-03-09T23:39:15.977Z,2.07
2019-03-09T23:41:45.274Z,1.97
2019-03-09T23:44:14.689Z,2.13
2019-03-09T23:46:44.096Z,2.07
2019-03-09T23:49:13.582Z,2.37
2019-03-09T23:51:42.870Z,2.27
2019-03-09T23:54:12.227Z,2.00
2019-03-09T23:56:41.610Z,2.63
2019-03-09T23:59:10.910Z,2.20
